Time;durP1;ratioP1;P1;durP2;ratioP2;P2;SDS_P1;SDS_P2;PMS_P1;PMS_P2;Temp;Humidity;BMP_temperature;BMP_pressure;BME280_temperature;BME280_humidity;BME280_pressure;Samples;Min_cycle;Max_cycle;Signal;HPM_P1;HPM_P2
2023/09/21 00:00:19;;;;;;;2.17;1.80;;;20.60;99.90;;;;;;5012501;28;20207;-79
2023/09/21 00:02:55;;;;;;;3.42;1.65;;;20.50;99.90;;;;;;5006883;28;20567;-80
2023/09/21 00:05:24;;;;;;;2.22;1.52;;;20.60;99.90;;;;;;5001159;28;20206;-80
2023/09/21 00:07:52;;;;;;;1.52;1.42;;;20.60;99.90;;;;;;5004589;28;20740;-79
2023/09/21 00:10:20;;;;;;;2.80;1.70;;;20.70;99.90;;;;;;5009083;28;20200;-79
2023/09/21 00:12:48;;;;;;;2.30;1.70;;;20.60;99.90;;;;;;5004601;28;20200;-79
2023/09/21 00:15:18;;;;;;;4.75;1.83;;;20.60;99.90;;;;;;5004454;28;20196;-79
2023/09/21 00:17:49;;;;;;;1.73;1.48;;;20.60;99.90;;;;;;5005456;28;20228;-79
2023/09/21 00:20:35;;;;;;;1.70;1.30;;;20.50;99.90;;;;;;5004838;28;20212;-80
2023/09/21 00:23:06;;;;;;;2.70;1.77;;;20.60;99.90;;;;;;5013734;28;20204;-79
2023/09/21 00:25:34;;;;;;;3.22;1.85;;;20.60;99.90;;;;;;5007806;28;20219;-79
2023/09/21 00:28:07;;;;;;;3.92;1.80;;;20.60;99.90;;;;;;5026073;28;20234;-79
2023/09/21 00:30:35;;;;;;;3.15;1.83;;;20.60;99.90;;;;;;5011047;28;20214;-79
2023/09/21 00:33:07;;;;;;;2.95;1.80;;;20.60;99.90;;;;;;5016383;28;20192;-79
2023/09/21 00:35:35;;;;;;;3.97;2.13;;;20.60;99.90;;;;;;5011925;28;20200;-79
2023/09/21 00:38:09;;;;;;;2.47;1.75;;;20.60;99.90;;;;;;5009453;28;20215;-77
2023/09/21 00:40:39;;;;;;;4.35;1.60;;;20.60;99.90;;;;;;5005736;28;20704;-77
2023/09/21 00:43:10;;;;;;;3.85;1.80;;;20.60;99.90;;;;;;5006841;28;20200;-77
2023/09/21 00:45:38;;;;;;;1.70;1.40;;;20.60;99.90;;;;;;5005771;28;20207;-77
2023/09/21 00:48:10;;;;;;;1.88;1.52;;;20.60;99.90;;;;;;4997687;28;20220;-77
2023/09/21 00:50:41;;;;;;;3.20;1.70;;;20.60;99.90;;;;;;5002601;28;20196;-78
2023/09/21 00:53:12;;;;;;;3.88;1.90;;;20.60;99.90;;;;;;5010728;28;20210;-77
2023/09/21 00:59:35;;;;;;;3.20;1.80;;;20.60;99.90;;;;;;5017076;28;20184;-77
2023/09/21 01:02:03;;;;;;;2.60;1.88;;;20.60;99.90;;;;;;5006129;28;20206;-77
2023/09/21 01:04:31;;;;;;;2.95;1.77;;;20.60;99.90;;;;;;5010046;28;20681;-77
2023/09/21 01:06:59;;;;;;;2.90;1.95;;;20.60;99.90;;;;;;5009111;28;20222;-77
2023/09/21 01:09:26;;;;;;;2.80;1.70;;;20.60;99.90;;;;;;5006471;28;20212;-77
2023/09/21 01:11:54;;;;;;;1.80;1.70;;;20.60;99.90;;;;;;5010783;28;20211;-77
2023/09/21 01:14:22;;;;;;;2.03;1.50;;;20.60;99.90;;;;;;5010631;28;20211;-77
2023/09/21 01:16:52;;;;;;;1.55;1.42;;;20.60;99.90;;;;;;5000201;28;20219;-78
2023/09/21 01:19:23;;;;;;;1.83;1.20;;;20.60;99.90;;;;;;5008605;28;20188;-79
2023/09/21 01:21:52;;;;;;;1.80;1.38;;;20.60;99.90;;;;;;5016707;28;20199;-79
2023/09/21 01:24:23;;;;;;;2.70;1.35;;;20.60;99.90;;;;;;5013140;28;20196;-79
2023/09/21 01:26:50;;;;;;;2.13;1.70;;;20.60;99.90;;;;;;5009896;28;20672;-80
2023/09/21 01:29:18;;;;;;;2.80;1.95;;;20.60;99.90;;;;;;5021853;28;20211;-81
2023/09/21 01:31:45;;;;;;;2.15;1.40;;;20.70;99.90;;;;;;5008975;28;20196;-78
2023/09/21 01:34:12;;;;;;;3.42;1.50;;;20.70;99.90;;;;;;5009249;28;20203;-78
2023/09/21 01:36:39;;;;;;;2.15;1.88;;;20.60;99.90;;;;;;5010430;28;20189;-78
2023/09/21 01:39:09;;;;;;;2.75;1.50;;;20.60;99.90;;;;;;5010510;28;20201;-78
2023/09/21 01:41:38;;;;;;;2.25;1.40;;;20.60;99.90;;;;;;5001397;28;20212;-77
2023/09/21 01:44:07;;;;;;;1.63;1.52;;;20.60;99.90;;;;;;5008533;28;20208;-78
2023/09/21 01:46:34;;;;;;;2.17;1.67;;;20.60;99.90;;;;;;5009484;28;20568;-78
2023/09/21 01:49:03;;;;;;;2.35;1.55;;;20.60;99.90;;;;;;5003154;28;20213;-77
2023/09/21 01:51:31;;;;;;;1.63;1.35;;;20.60;99.90;;;;;;5007577;28;20204;-78
2023/09/21 01:53:58;;;;;;;3.50;1.75;;;20.50;99.90;;;;;;5012968;28;20200;-78
2023/09/21 01:56:28;;;;;;;2.40;1.50;;;20.50;99.90;;;;;;5009586;28;20203;-78
2023/09/21 01:58:58;;;;;;;2.13;1.58;;;20.50;99.90;;;;;;5014413;28;20192;-78
2023/09/21 02:01:25;;;;;;;2.88;1.73;;;20.50;99.90;;;;;;5010383;28;20565;-78
2023/09/21 02:03:56;;;;;;;2.17;1.80;;;20.60;99.90;;;;;;5002283;28;20200;-78
2023/09/21 02:06:23;;;;;;;1.55;1.45;;;20.50;99.90;;;;;;5004338;28;20208;-78
2023/09/21 02:08:51;;;;;;;3.38;1.65;;;20.50;99.90;;;;;;5014337;28;20219;-78
2023/09/21 02:11:18;;;;;;;3.78;1.70;;;20.60;99.90;;;;;;5001900;28;20196;-77
2023/09/21 02:17:14;;;;;;;3.40;1.70;;;20.50;99.90;;;;;;5011942;28;20211;-77
2023/09/21 02:19:42;;;;;;;1.88;1.70;;;20.50;99.90;;;;;;5007997;28;20206;-77
2023/09/21 02:22:11;;;;;;;2.15;1.45;;;20.60;99.90;;;;;;4996120;28;20207;-78
2023/09/21 02:24:38;;;;;;;3.40;1.67;;;20.50;99.90;;;;;;5011280;28;20208;-77
2023/09/21 02:27:06;;;;;;;3.03;1.70;;;20.50;99.90;;;;;;5008989;28;20227;-77
2023/09/21 02:29:34;;;;;;;2.35;1.40;;;20.60;99.90;;;;;;5001433;28;20246;-78
2023/09/21 02:32:03;;;;;;;2.00;1.80;;;20.60;99.90;;;;;;4996683;28;20208;-77
2023/09/21 02:34:32;;;;;;;2.75;1.92;;;20.50;99.90;;;;;;5004670;28;20208;-78
2023/09/21 02:37:01;;;;;;;2.67;1.40;;;20.60;99.90;;;;;;5009196;28;20228;-77
2023/09/21 02:39:29;;;;;;;2.35;1.50;;;20.50;99.90;;;;;;5009982;28;20199;-78
2023/09/21 02:41:58;;;;;;;3.30;1.27;;;20.50;99.90;;;;;;4998915;28;20196;-77
2023/09/21 02:44:25;;;;;;;1.48;1.38;;;20.50;99.90;;;;;;4999121;28;20201;-78
2023/09/21 02:46:53;;;;;;;2.72;1.45;;;20.50;99.90;;;;;;5002550;28;20231;-77
2023/09/21 02:49:21;;;;;;;2.08;1.63;;;20.50;99.90;;;;;;5012361;28;20212;-77
2023/09/21 02:51:50;;;;;;;2.47;1.67;;;20.50;99.90;;;;;;5003353;28;20196;-78
2023/09/21 02:54:18;;;;;;;2.30;1.80;;;20.50;99.90;;;;;;5007225;28;20204;-77
2023/09/21 02:56:47;;;;;;;2.08;1.80;;;20.40;99.90;;;;;;5003712;28;20223;-78
2023/09/21 02:59:15;;;;;;;2.75;1.38;;;20.40;99.90;;;;;;5001815;28;20200;-78
2023/09/21 03:01:42;;;;;;;2.60;1.60;;;20.40;99.90;;;;;;5004672;28;21084;-78
2023/09/21 03:04:11;;;;;;;2.83;1.73;;;20.40;99.90;;;;;;5001748;28;20208;-77
2023/09/21 03:06:42;;;;;;;4.28;1.60;;;20.40;99.90;;;;;;5005667;28;20200;-77
2023/09/21 03:09:12;;;;;;;2.20;1.50;;;20.30;99.90;;;;;;5003158;28;20215;-77
2023/09/21 03:11:40;;;;;;;4.45;1.75;;;20.30;99.90;;;;;;5004461;28;20199;-77
2023/09/21 03:14:08;;;;;;;2.90;1.70;;;20.30;99.90;;;;;;4998775;28;20203;-78
2023/09/21 03:16:39;;;;;;;3.63;1.98;;;20.30;99.90;;;;;;5012669;28;20207;-77
2023/09/21 03:19:08;;;;;;;2.47;1.80;;;20.30;99.90;;;;;;5014028;28;20202;-78
2023/09/21 03:21:35;;;;;;;3.88;1.50;;;20.20;99.90;;;;;;5014159;28;20537;-78
2023/09/21 03:24:03;;;;;;;2.10;1.45;;;20.20;99.90;;;;;;5006045;28;20200;-78
2023/09/21 03:26:35;;;;;;;2.40;1.77;;;20.20;99.90;;;;;;5006291;28;20204;-79
2023/09/21 03:29:08;;;;;;;2.22;1.63;;;20.20;99.90;;;;;;5010036;28;20200;-79
2023/09/21 03:31:37;;;;;;;2.55;1.83;;;20.20;99.90;;;;;;5000392;28;20195;-78
2023/09/21 03:34:05;;;;;;;2.20;1.70;;;20.10;99.90;;;;;;5010151;28;20200;-78
2023/09/21 03:36:36;;;;;;;1.50;1.40;;;20.10;99.90;;;;;;4997853;28;20204;-78
2023/09/21 03:39:09;;;;;;;3.22;1.67;;;20.10;99.90;;;;;;5008454;28;20195;-78
2023/09/21 03:41:38;;;;;;;1.95;1.52;;;20.00;99.90;;;;;;4998484;28;20207;-78
2023/09/21 03:44:06;;;;;;;1.85;1.55;;;20.10;99.90;;;;;;5006397;28;20204;-78
2023/09/21 03:46:34;;;;;;;3.45;1.75;;;20.10;99.90;;;;;;5017267;28;20204;-78
2023/09/21 03:49:04;;;;;;;2.30;1.60;;;20.10;99.90;;;;;;5010769;28;20212;-78
2023/09/21 03:51:33;;;;;;;2.03;1.52;;;20.00;99.90;;;;;;5012648;28;20228;-78
2023/09/21 03:54:02;;;;;;;2.65;1.73;;;20.00;99.90;;;;;;5007793;28;20211;-78
2023/09/21 03:56:29;;;;;;;3.22;2.17;;;20.00;99.90;;;;;;5008842;28;20208;-78
2023/09/21 03:58:58;;;;;;;2.58;1.92;;;19.90;99.90;;;;;;4999223;28;20207;-77
2023/09/21 04:01:26;;;;;;;2.28;1.65;;;20.00;99.90;;;;;;4998497;28;20192;-79
2023/09/21 04:03:53;;;;;;;4.03;1.70;;;20.00;99.90;;;;;;5007863;28;20206;-79
2023/09/21 04:06:25;;;;;;;2.28;1.85;;;20.00;99.90;;;;;;5006978;28;20199;-78
2023/09/21 04:08:53;;;;;;;2.17;1.73;;;20.00;99.90;;;;;;5006547;28;20223;-78
2023/09/21 04:11:20;;;;;;;1.90;1.58;;;20.00;99.90;;;;;;5002343;28;20228;-78
2023/09/21 04:13:48;;;;;;;3.60;1.83;;;20.00;99.90;;;;;;5005918;28;20381;-78
2023/09/21 04:16:17;;;;;;;2.28;1.77;;;20.00;99.90;;;;;;5014897;28;20203;-78
2023/09/21 04:18:44;;;;;;;2.30;1.65;;;20.00;99.90;;;;;;5007733;28;20224;-78
2023/09/21 04:21:12;;;;;;;2.75;1.77;;;20.00;99.90;;;;;;5004778;28;20676;-78
2023/09/21 04:23:40;;;;;;;2.03;1.80;;;20.00;99.90;;;;;;5006872;28;20199;-78
2023/09/21 04:26:07;;;;;;;2.75;1.67;;;19.90;99.90;;;;;;5012540;28;20654;-78
2023/09/21 04:28:34;;;;;;;3.22;2.00;;;20.00;99.90;;;;;;5006149;28;20234;-78
2023/09/21 04:31:03;;;;;;;4.60;1.77;;;20.00;99.90;;;;;;5000543;28;20226;-78
2023/09/21 04:33:33;;;;;;;2.72;1.83;;;20.00;99.90;;;;;;5007585;28;20207;-78
2023/09/21 04:36:01;;;;;;;2.03;1.65;;;20.00;99.90;;;;;;5014558;28;20199;-78
2023/09/21 04:38:28;;;;;;;2.03;1.70;;;20.00;99.90;;;;;;5006764;28;20227;-78
2023/09/21 04:40:56;;;;;;;4.38;1.70;;;20.00;99.90;;;;;;5010104;28;20368;-78
2023/09/21 04:43:23;;;;;;;4.38;2.10;;;19.90;99.90;;;;;;4999840;28;20565;-78
2023/09/21 04:45:51;;;;;;;1.60;1.45;;;20.00;99.90;;;;;;5004603;28;20192;-78
2023/09/21 04:48:19;;;;;;;3.63;1.65;;;20.00;99.90;;;;;;5012067;28;20219;-78
2023/09/21 04:50:49;;;;;;;3.10;1.80;;;20.00;99.90;;;;;;5005568;28;20686;-79
2023/09/21 04:53:16;;;;;;;2.78;1.83;;;20.00;99.90;;;;;;5001196;28;20201;-78
2023/09/21 04:55:46;;;;;;;2.33;1.70;;;20.00;99.90;;;;;;5009520;28;20236;-78
2023/09/21 04:58:14;;;;;;;2.38;1.88;;;20.00;99.90;;;;;;5011695;28;20231;-78
2023/09/21 05:00:41;;;;;;;2.92;1.67;;;20.00;99.90;;;;;;4997994;28;20192;-78
2023/09/21 05:03:09;;;;;;;3.22;2.00;;;20.00;99.90;;;;;;5004066;28;20207;-78
2023/09/21 05:05:37;;;;;;;2.53;1.50;;;20.00;99.90;;;;;;4997227;28;20200;-78
2023/09/21 05:08:06;;;;;;;2.05;1.52;;;20.10;99.90;;;;;;5004528;28;20712;-77
2023/09/21 05:10:33;;;;;;;2.25;1.73;;;20.00;99.90;;;;;;5005182;28;20223;-78
2023/09/21 05:13:02;;;;;;;2.80;1.42;;;20.00;99.90;;;;;;5016103;28;20200;-78
2023/09/21 05:15:29;;;;;;;4.65;2.00;;;20.00;99.90;;;;;;5005121;28;20212;-77
2023/09/21 05:17:57;;;;;;;2.00;1.75;;;20.00;99.90;;;;;;5008581;28;20226;-77
2023/09/21 05:20:24;;;;;;;2.08;1.83;;;20.00;99.90;;;;;;5009493;28;20662;-77
2023/09/21 05:22:52;;;;;;;3.35;1.70;;;20.00;99.90;;;;;;5000072;28;20204;-78
2023/09/21 05:25:21;;;;;;;1.70;1.60;;;20.00;99.90;;;;;;5007527;28;20211;-77
2023/09/21 05:27:48;;;;;;;2.20;1.70;;;20.00;99.90;;;;;;5005168;28;20701;-78
2023/09/21 05:30:19;;;;;;;2.35;1.63;;;19.90;99.90;;;;;;5000289;28;20208;-78
2023/09/21 05:32:46;;;;;;;1.63;1.50;;;19.90;99.90;;;;;;5005540;28;20204;-77
2023/09/21 05:35:16;;;;;;;3.10;2.00;;;19.90;99.90;;;;;;5000270;28;20196;-78
2023/09/21 05:37:44;;;;;;;3.00;1.70;;;19.90;99.90;;;;;;5018765;28;20234;-79
2023/09/21 05:40:12;;;;;;;4.38;1.67;;;19.80;99.90;;;;;;5005128;28;20208;-78
2023/09/21 05:42:41;;;;;;;2.17;1.70;;;19.80;99.90;;;;;;5009260;28;20214;-78
2023/09/21 05:45:09;;;;;;;1.95;1.75;;;19.90;99.90;;;;;;5002485;28;20219;-78
2023/09/21 05:47:36;;;;;;;3.45;1.70;;;19.80;99.90;;;;;;5005876;28;20231;-78
2023/09/21 05:50:05;;;;;;;2.15;1.70;;;19.90;99.90;;;;;;5009609;28;20216;-78
2023/09/21 05:52:35;;;;;;;3.33;1.75;;;19.90;99.90;;;;;;5009901;28;20230;-78
2023/09/21 05:55:02;;;;;;;3.95;2.30;;;19.90;99.90;;;;;;5028746;28;20211;-78
2023/09/21 05:57:30;;;;;;;4.93;1.92;;;19.90;99.90;;;;;;5007521;28;20243;-78
2023/09/21 05:59:59;;;;;;;1.63;1.48;;;20.00;99.90;;;;;;5008646;28;20199;-78
2023/09/21 06:02:27;;;;;;;2.08;1.80;;;20.00;99.90;;;;;;5012811;28;20204;-78
2023/09/21 06:04:55;;;;;;;2.35;1.50;;;20.00;99.90;;;;;;5007241;28;20204;-78
2023/09/21 06:07:24;;;;;;;2.00;1.80;;;20.00;99.90;;;;;;5015474;28;20231;-78
2023/09/21 06:09:52;;;;;;;3.17;1.83;;;20.00;99.90;;;;;;5005044;28;20218;-78
2023/09/21 06:12:19;;;;;;;5.43;2.10;;;20.10;99.90;;;;;;5002369;28;20223;-79
2023/09/21 06:14:50;;;;;;;2.50;1.90;;;20.10;99.90;;;;;;5005935;28;20677;-78
2023/09/21 06:17:22;;;;;;;3.00;1.95;;;20.10;99.90;;;;;;5006875;28;20224;-77
2023/09/21 06:19:52;;;;;;;4.22;2.30;;;20.10;99.90;;;;;;5002579;28;20205;-77
2023/09/21 06:22:19;;;;;;;5.15;2.20;;;20.10;99.90;;;;;;5010160;28;20200;-78
2023/09/21 06:24:47;;;;;;;2.97;1.75;;;20.20;99.90;;;;;;5014113;28;20222;-78
2023/09/21 06:27:15;;;;;;;1.92;1.55;;;20.20;99.90;;;;;;5002500;28;20693;-78
2023/09/21 06:29:43;;;;;;;2.60;1.77;;;20.20;99.90;;;;;;5005887;28;20208;-77
2023/09/21 06:32:11;;;;;;;2.17;1.63;;;20.30;99.90;;;;;;5007639;28;20219;-78
2023/09/21 06:34:42;;;;;;;2.50;1.88;;;20.40;99.90;;;;;;5006112;28;20210;-78
2023/09/21 06:37:09;;;;;;;2.65;2.03;;;20.40;99.90;;;;;;5015299;28;20223;-78
2023/09/21 06:39:37;;;;;;;4.50;1.90;;;20.40;99.90;;;;;;5005504;28;20713;-79
2023/09/21 06:42:06;;;;;;;2.65;1.98;;;20.40;99.90;;;;;;5015171;28;20566;-78
2023/09/21 06:44:34;;;;;;;1.92;1.65;;;20.50;99.90;;;;;;5002299;28;20678;-79
2023/09/21 06:47:02;;;;;;;2.50;2.10;;;20.50;99.90;;;;;;4996820;28;20239;-79
2023/09/21 06:49:29;;;;;;;2.80;1.83;;;20.50;99.90;;;;;;5009365;28;20211;-78
2023/09/21 06:51:59;;;;;;;4.25;1.83;;;20.50;99.90;;;;;;5003268;28;20221;-77
2023/09/21 06:54:28;;;;;;;3.10;2.10;;;20.50;99.90;;;;;;5005816;28;20226;-77
2023/09/21 06:57:03;;;;;;;3.72;2.25;;;20.60;99.90;;;;;;5008760;28;20230;-78
2023/09/21 06:59:30;;;;;;;3.05;1.80;;;20.60;99.90;;;;;;5009624;28;20203;-77
2023/09/21 07:01:58;;;;;;;2.60;1.90;;;20.60;99.90;;;;;;5009674;28;20215;-77
2023/09/21 07:04:27;;;;;;;2.40;1.90;;;20.70;99.90;;;;;;5016556;28;20203;-77
2023/09/21 07:06:55;;;;;;;2.28;1.67;;;20.70;99.90;;;;;;5012822;28;20226;-77
2023/09/21 07:09:24;;;;;;;2.72;1.90;;;20.70;99.90;;;;;;5004367;28;20219;-77
2023/09/21 07:11:51;;;;;;;2.75;2.22;;;20.70;99.90;;;;;;5009267;28;20239;-77
2023/09/21 07:14:19;;;;;;;2.90;1.92;;;20.70;99.90;;;;;;5002327;28;20211;-77
2023/09/21 07:16:47;;;;;;;3.53;1.92;;;20.70;99.90;;;;;;5004001;28;20243;-78
2023/09/21 07:19:14;;;;;;;2.63;1.80;;;20.80;99.90;;;;;;5009611;28;20207;-77
2023/09/21 07:21:42;;;;;;;3.78;2.10;;;20.70;99.90;;;;;;5011960;28;20214;-78
2023/09/21 07:24:09;;;;;;;2.35;2.03;;;20.70;99.90;;;;;;5013022;28;20223;-77
2023/09/21 07:26:38;;;;;;;2.28;1.80;;;20.70;99.90;;;;;;5014495;28;20215;-79
2023/09/21 07:29:06;;;;;;;5.20;2.17;;;20.70;99.90;;;;;;5003600;28;20204;-78
2023/09/21 07:31:34;;;;;;;2.92;2.10;;;20.70;99.90;;;;;;5005556;28;20227;-77
2023/09/21 07:34:02;;;;;;;3.72;2.13;;;20.80;99.90;;;;;;5009091;28;20197;-77
2023/09/21 07:36:32;;;;;;;2.95;2.10;;;20.90;99.90;;;;;;5008639;28;20688;-78
2023/09/21 07:38:59;;;;;;;2.40;1.92;;;20.90;99.90;;;;;;5014525;28;20555;-77
2023/09/21 07:41:27;;;;;;;3.38;2.30;;;20.90;99.90;;;;;;5018706;28;20203;-76
2023/09/21 07:43:56;;;;;;;4.45;2.28;;;20.90;99.90;;;;;;5004066;28;20220;-77
2023/09/21 07:46:28;;;;;;;3.20;2.10;;;21.00;99.90;;;;;;5026411;28;20200;-83
2023/09/21 07:48:55;;;;;;;4.63;2.25;;;21.00;99.90;;;;;;5014244;28;20203;-76
2023/09/21 07:51:26;;;;;;;2.30;1.73;;;21.10;99.90;;;;;;5004304;28;20262;-77
2023/09/21 07:53:53;;;;;;;3.00;2.10;;;21.10;99.90;;;;;;5002061;28;20203;-76
2023/09/21 07:56:21;;;;;;;4.38;2.15;;;21.10;99.90;;;;;;5004318;28;20602;-77
2023/09/21 07:58:49;;;;;;;3.05;2.08;;;21.20;99.90;;;;;;5009776;28;20246;-78
2023/09/21 08:01:18;;;;;;;2.30;2.05;;;21.20;99.90;;;;;;5006046;28;20199;-75
2023/09/21 08:03:46;;;;;;;4.13;2.20;;;21.20;99.90;;;;;;5012218;28;20199;-78
2023/09/21 08:06:23;;;;;;;2.20;2.00;;;21.30;99.90;;;;;;5007008;28;20223;-79
2023/09/21 08:08:52;;;;;;;2.15;1.95;;;21.40;99.90;;;;;;4997664;28;20220;-78
2023/09/21 08:11:19;;;;;;;2.45;1.98;;;21.50;99.90;;;;;;4997765;28;20204;-78
2023/09/21 08:13:47;;;;;;;2.13;1.90;;;21.50;99.90;;;;;;5002855;28;20238;-77
2023/09/21 08:16:14;;;;;;;3.33;2.40;;;21.50;99.90;;;;;;5003639;28;20199;-77
2023/09/21 08:18:44;;;;;;;3.05;1.90;;;21.60;99.90;;;;;;5004909;28;20236;-80
2023/09/21 08:21:15;;;;;;;3.03;1.90;;;21.50;99.90;;;;;;5012086;28;20214;-76
2023/09/21 08:23:43;;;;;;;2.63;2.15;;;21.50;99.90;;;;;;5004004;28;20196;-77
2023/09/21 08:26:13;;;;;;;2.33;1.90;;;21.50;99.90;;;;;;5003416;28;20209;-78
2023/09/21 08:28:41;;;;;;;3.45;1.90;;;21.50;99.90;;;;;;5005305;28;20223;-76
2023/09/21 08:31:10;;;;;;;3.17;2.20;;;21.70;99.90;;;;;;5001547;28;20200;-77
2023/09/21 08:33:38;;;;;;;3.10;2.53;;;21.70;99.90;;;;;;5011023;28;20227;-80
2023/09/21 08:36:15;;;;;;;3.72;2.47;;;21.70;99.90;;;;;;5002182;28;20214;-77
2023/09/21 08:38:43;;;;;;;3.70;1.98;;;21.80;99.90;;;;;;5008397;28;20222;-77
2023/09/21 08:41:13;;;;;;;3.65;2.30;;;21.90;99.90;;;;;;5005122;28;20199;-77
2023/09/21 08:43:41;;;;;;;4.20;1.95;;;21.90;99.90;;;;;;5010082;28;20196;-77
2023/09/21 08:46:11;;;;;;;2.47;1.95;;;21.80;99.90;;;;;;5009567;28;20200;-76
2023/09/21 08:48:40;;;;;;;3.20;2.00;;;21.90;99.90;;;;;;4999472;28;20224;-77
2023/09/21 08:51:18;;;;;;;5.18;2.50;;;21.90;99.90;;;;;;5006968;28;20191;-77
2023/09/21 08:53:51;;;;;;;2.35;1.83;;;21.90;99.90;;;;;;5015921;28;20219;-77
2023/09/21 08:56:20;;;;;;;1.98;1.83;;;22.00;99.90;;;;;;5008875;28;20196;-78
2023/09/21 08:58:54;;;;;;;2.25;1.88;;;21.90;99.90;;;;;;5000211;28;20239;-78
2023/09/21 09:01:23;;;;;;;2.45;1.98;;;21.80;99.90;;;;;;5004251;28;20204;-79
2023/09/21 09:03:54;;;;;;;3.83;1.85;;;21.80;99.90;;;;;;5009904;28;20206;-80
2023/09/21 09:06:31;;;;;;;3.88;2.10;;;21.80;99.90;;;;;;5003615;28;20207;-79
2023/09/21 09:09:06;;;;;;;3.45;1.85;;;22.00;99.90;;;;;;5018053;28;20207;-78
2023/09/21 09:11:45;;;;;;;3.33;2.00;;;22.00;99.90;;;;;;5007762;28;20202;-79
2023/09/21 09:14:16;;;;;;;3.40;1.95;;;22.20;99.90;;;;;;5016739;28;20216;-79
2023/09/21 09:16:49;;;;;;;2.42;1.90;;;22.20;99.90;;;;;;5003989;28;20199;-78
2023/09/21 09:19:21;;;;;;;3.25;2.10;;;22.20;99.90;;;;;;4998538;28;20206;-78
2023/09/21 09:21:53;;;;;;;2.45;2.00;;;22.30;99.90;;;;;;5004248;28;20211;-78
2023/09/21 09:24:29;;;;;;;1.80;1.50;;;22.30;99.90;;;;;;5004468;28;20200;-79
2023/09/21 09:26:59;;;;;;;2.00;1.80;;;22.20;99.90;;;;;;4997342;28;20232;-78
2023/09/21 09:29:34;;;;;;;3.65;1.52;;;22.20;99.90;;;;;;5011510;28;20200;-78
2023/09/21 09:32:09;;;;;;;5.22;1.73;;;22.20;99.90;;;;;;4998370;28;20214;-78
2023/09/21 09:34:41;;;;;;;3.85;2.00;;;22.20;99.90;;;;;;5003890;28;20204;-78
2023/09/21 09:37:17;;;;;;;3.03;1.90;;;22.20;99.90;;;;;;5003063;28;20226;-79
2023/09/21 09:39:51;;;;;;;2.20;1.98;;;22.20;99.90;;;;;;5006739;28;20206;-78
2023/09/21 09:42:19;;;;;;;1.90;1.58;;;22.30;99.90;;;;;;5031763;28;20207;-78
2023/09/21 09:45:03;;;;;;;;;;;;;;;;;;;;;
2023/09/21 09:48:12;;;;;;;;;;;;;;;;;;;;;
2023/09/21 09:51:16;;;;;;;;;;;;;;;;;;;;;
2023/09/21 09:53:48;;;;;;;3.45;1.90;;;22.30;99.90;;;;;;4979860;28;20246;-81
2023/09/21 09:56:17;;;;;;;2.88;2.00;;;22.30;99.90;;;;;;5006627;28;20203;-79
2023/09/21 09:58:47;;;;;;;2.67;1.60;;;22.30;99.90;;;;;;5007730;28;20697;-78
2023/09/21 10:01:17;;;;;;;3.47;2.08;;;22.20;99.90;;;;;;5020221;28;20209;-78
2023/09/21 10:03:45;;;;;;;1.80;1.50;;;22.20;99.90;;;;;;5002694;28;20211;-78
2023/09/21 10:06:14;;;;;;;2.08;1.55;;;22.40;99.90;;;;;;5004284;28;20204;-78
2023/09/21 10:08:42;;;;;;;2.25;1.48;;;22.50;99.90;;;;;;5004215;28;20223;-78
2023/09/21 10:11:13;;;;;;;2.30;1.90;;;22.50;99.90;;;;;;5009418;28;20196;-78
2023/09/21 10:13:51;;;;;;;3.22;1.90;;;22.40;99.90;;;;;;5005573;28;20242;-79
2023/09/21 10:16:20;;;;;;;2.53;1.98;;;22.40;99.90;;;;;;5005461;28;20196;-79
2023/09/21 10:18:55;;;;;;;3.58;1.90;;;22.50;99.90;;;;;;5002863;28;20220;-78
2023/09/21 10:21:24;;;;;;;3.50;2.50;;;22.40;99.90;;;;;;5003640;28;20207;-78
2023/09/21 10:24:03;;;;;;;2.22;1.80;;;22.40;99.90;;;;;;5004362;28;20571;-78
2023/09/21 10:26:34;;;;;;;3.35;1.88;;;22.40;99.90;;;;;;5020634;28;20214;-79
2023/09/21 10:29:04;;;;;;;3.25;1.85;;;22.40;99.90;;;;;;5004609;28;20680;-78
2023/09/21 10:31:33;;;;;;;2.97;1.90;;;22.30;99.90;;;;;;5003967;28;20204;-78
2023/09/21 10:34:12;;;;;;;6.07;2.08;;;22.40;99.90;;;;;;4999837;28;20223;-79
2023/09/21 10:36:46;;;;;;;2.35;1.80;;;22.40;99.90;;;;;;5009064;28;20191;-78
2023/09/21 10:39:28;;;;;;;3.10;2.10;;;22.40;99.90;;;;;;4998900;28;20200;-78
2023/09/21 10:42:15;;;;;;;2.88;1.80;;;22.50;99.90;;;;;;5006012;28;20208;-78
2023/09/21 10:45:04;;;;;;;3.05;2.28;;;22.60;99.90;;;;;;5011781;28;20560;-78
2023/09/21 10:47:38;;;;;;;2.42;1.90;;;22.70;99.90;;;;;;5027454;28;20234;-78
2023/09/21 10:50:10;;;;;;;2.70;2.03;;;22.60;99.90;;;;;;5014902;28;20666;-78
2023/09/21 10:52:40;;;;;;;3.15;2.00;;;22.60;99.90;;;;;;5008248;28;20212;-78
2023/09/21 10:55:09;;;;;;;3.25;2.00;;;22.60;99.90;;;;;;5003675;28;20223;-79
2023/09/21 10:57:38;;;;;;;3.10;2.13;;;22.80;99.90;;;;;;5002970;28;20234;-78
2023/09/21 11:00:08;;;;;;;3.25;2.10;;;22.80;99.90;;;;;;5003104;28;20218;-78
2023/09/21 11:02:38;;;;;;;5.53;1.98;;;22.80;99.90;;;;;;5011766;28;20208;-79
2023/09/21 11:05:08;;;;;;;2.42;2.10;;;22.80;99.90;;;;;;5009399;28;20203;-79
2023/09/21 11:07:36;;;;;;;2.08;1.83;;;22.80;99.90;;;;;;5000831;28;20235;-79
2023/09/21 11:10:06;;;;;;;2.75;1.70;;;22.90;99.90;;;;;;5007784;28;20207;-79
2023/09/21 11:12:34;;;;;;;4.80;2.30;;;22.90;99.90;;;;;;5010886;28;20203;-79
2023/09/21 11:15:06;;;;;;;2.60;1.80;;;22.90;99.90;;;;;;4999949;28;20227;-79
2023/09/21 11:17:36;;;;;;;5.50;1.95;;;23.00;99.90;;;;;;5000989;28;20232;-79
2023/09/21 11:20:04;;;;;;;6.78;1.88;;;23.00;99.90;;;;;;5010865;28;20200;-79
2023/09/21 11:22:33;;;;;;;2.22;2.03;;;22.90;99.90;;;;;;5003736;28;20219;-78
2023/09/21 11:25:01;;;;;;;4.35;1.80;;;22.70;99.90;;;;;;5002700;28;20279;-78
2023/09/21 11:27:28;;;;;;;3.97;1.90;;;22.50;99.90;;;;;;5005577;28;20228;-78
2023/09/21 11:29:56;;;;;;;3.15;2.00;;;22.40;99.90;;;;;;5003878;28;20211;-77
2023/09/21 11:32:29;;;;;;;1.80;1.70;;;22.50;99.90;;;;;;5017213;28;20209;-77
2023/09/21 11:35:00;;;;;;;3.25;2.00;;;22.40;99.90;;;;;;5006433;28;20311;-77
2023/09/21 11:37:28;;;;;;;4.80;1.92;;;22.40;99.90;;;;;;4998099;28;20682;-77
2023/09/21 11:39:56;;;;;;;3.40;2.38;;;22.50;99.90;;;;;;5020725;28;20207;-76
2023/09/21 11:42:25;;;;;;;2.00;1.80;;;22.70;99.90;;;;;;4997976;28;20204;-77
2023/09/21 11:44:53;;;;;;;2.40;2.10;;;23.00;99.90;;;;;;5006540;28;20202;-77
2023/09/21 11:47:22;;;;;;;3.38;2.10;;;23.10;99.90;;;;;;4998665;28;20228;-77
2023/09/21 11:49:55;;;;;;;3.47;2.15;;;23.20;99.90;;;;;;4992174;28;20200;-77
2023/09/21 11:52:24;;;;;;;2.40;2.10;;;23.40;99.90;;;;;;4994837;28;20200;-76
2023/09/21 11:54:52;;;;;;;3.85;2.35;;;23.50;99.90;;;;;;4993398;28;20623;-77
2023/09/21 11:57:20;;;;;;;3.65;2.20;;;23.30;99.90;;;;;;4997020;28;20228;-77
2023/09/21 11:59:48;;;;;;;3.05;2.15;;;23.30;99.90;;;;;;4997493;28;20215;-77
2023/09/21 12:02:16;;;;;;;4.63;2.03;;;23.30;99.90;;;;;;4995157;28;20208;-77
2023/09/21 12:04:44;;;;;;;3.33;2.10;;;23.20;99.90;;;;;;5012508;28;20199;-77
2023/09/21 12:07:15;;;;;;;2.85;2.17;;;23.10;99.90;;;;;;4996410;28;20733;-77
2023/09/21 12:09:42;;;;;;;3.15;2.08;;;23.20;99.90;;;;;;5003398;28;20196;-77
2023/09/21 12:12:12;;;;;;;2.85;2.08;;;23.20;99.90;;;;;;4997927;28;20211;-77
2023/09/21 12:14:44;;;;;;;3.42;2.53;;;23.10;99.90;;;;;;4996298;28;20227;-77
2023/09/21 12:17:19;;;;;;;2.45;2.08;;;23.00;99.90;;;;;;5001999;28;20219;-77
2023/09/21 12:19:46;;;;;;;2.75;2.22;;;22.90;99.90;;;;;;4999305;28;20208;-79
2023/09/21 12:22:17;;;;;;;2.10;1.90;;;22.90;99.90;;;;;;4997871;28;20196;-78
2023/09/21 12:24:45;;;;;;;2.22;1.73;;;22.90;99.90;;;;;;4996628;28;20231;-78
2023/09/21 12:27:13;;;;;;;2.85;2.10;;;22.90;99.90;;;;;;5001881;28;20228;-78
2023/09/21 12:29:40;;;;;;;2.28;2.00;;;22.80;99.90;;;;;;5002309;28;20211;-78
2023/09/21 12:32:08;;;;;;;3.70;2.17;;;22.70;99.90;;;;;;5002520;28;20545;-77
2023/09/21 12:34:35;;;;;;;2.83;2.20;;;22.60;99.90;;;;;;5004845;28;20546;-78
2023/09/21 12:37:05;;;;;;;3.85;2.05;;;22.50;99.90;;;;;;5001754;28;20220;-78
2023/09/21 12:39:33;;;;;;;3.22;2.10;;;22.60;99.90;;;;;;5000442;28;20203;-78
2023/09/21 12:42:01;;;;;;;2.90;2.28;;;22.60;99.90;;;;;;5005565;28;20199;-78
2023/09/21 12:44:28;;;;;;;2.83;1.88;;;22.50;99.90;;;;;;5009273;28;20206;-78
2023/09/21 12:46:56;;;;;;;3.97;2.60;;;22.60;99.90;;;;;;5024649;28;20219;-78
2023/09/21 12:50:08;;;;;;;3.42;2.20;;;22.60;99.90;;;;;;5004500;28;20568;-78
2023/09/21 12:52:35;;;;;;;2.90;2.15;;;22.60;99.90;;;;;;5009773;28;20204;-78
2023/09/21 12:55:05;;;;;;;2.65;2.15;;;22.60;99.90;;;;;;5004790;28;20223;-78
2023/09/21 12:57:35;;;;;;;1.95;1.80;;;22.60;99.90;;;;;;5008322;28;20216;-78
2023/09/21 13:00:10;;;;;;;3.50;2.10;;;22.50;99.90;;;;;;5004325;28;20211;-78
2023/09/21 13:03:02;;;;;;;2.65;2.45;;;22.50;99.90;;;;;;4999843;28;22674;-78
2023/09/21 13:05:29;;;;;;;3.08;2.38;;;22.50;99.90;;;;;;5005591;28;20196;-78
2023/09/21 13:07:57;;;;;;;3.28;2.00;;;22.40;99.90;;;;;;5001527;28;20220;-78
2023/09/21 13:10:26;;;;;;;3.13;2.30;;;22.40;99.90;;;;;;5003221;28;20206;-78